Time;durP1;ratioP1;P1;durP2;ratioP2;P2;SDS_P1;SDS_P2;PMS_P1;PMS_P2;Temp;Humidity;BMP_temperature;BMP_pressure;BME280_temperature;BME280_humidity;BME280_pressure;Samples;Min_cycle;Max_cycle;Signal;HPM_P1;HPM_P2
2021/04/21 00:01:47;;;;;;;5.73;5.10;;;6.80;99.90;;;;;;5062876;28;20416;-79
2021/04/21 00:04:14;;;;;;;5.95;5.30;;;6.80;99.90;;;;;;5033524;28;20402;-80
2021/04/21 00:06:40;;;;;;;8.30;5.85;;;6.70;99.90;;;;;;5052653;28;20410;-80
2021/04/21 00:09:10;;;;;;;5.85;5.25;;;6.60;99.90;;;;;;5047404;28;20413;-79
2021/04/21 00:11:36;;;;;;;8.60;6.18;;;6.60;99.90;;;;;;5066791;28;20486;-80
2021/04/21 00:14:02;;;;;;;6.53;5.68;;;6.60;99.90;;;;;;5052327;28;20467;-78
2021/04/21 00:16:28;;;;;;;5.80;5.13;;;6.50;99.90;;;;;;5045027;28;20490;-77
2021/04/21 00:18:54;;;;;;;5.40;4.88;;;6.50;99.90;;;;;;5041085;28;20408;-78
2021/04/21 00:21:20;;;;;;;5.30;4.80;;;6.50;99.90;;;;;;5049819;28;20389;-77
2021/04/21 00:23:46;;;;;;;5.17;4.67;;;6.60;99.90;;;;;;5060600;28;20400;-76
2021/04/21 00:26:15;;;;;;;4.87;3.53;;;6.50;99.90;;;;;;5025542;28;20509;-76
2021/04/21 00:28:41;;;;;;;3.95;3.58;;;6.50;99.90;;;;;;5017962;28;20471;-77
2021/04/21 00:31:08;;;;;;;3.67;3.37;;;6.40;99.90;;;;;;5031238;28;20438;-77
2021/04/21 00:33:34;;;;;;;4.60;4.10;;;6.30;99.90;;;;;;5067368;28;20444;-77
2021/04/21 00:36:03;;;;;;;4.00;3.70;;;6.30;99.90;;;;;;5014118;28;20488;-77
2021/04/21 00:38:29;;;;;;;4.07;3.55;;;6.20;99.90;;;;;;5034789;28;20408;-78
2021/04/21 00:40:57;;;;;;;3.60;3.30;;;6.20;99.90;;;;;;5052533;28;20412;-77
2021/04/21 00:43:29;;;;;;;4.22;3.58;;;6.10;99.90;;;;;;5031559;28;20483;-77
2021/04/21 00:46:11;;;;;;;3.60;3.30;;;6.20;99.90;;;;;;5042837;28;20397;-77
2021/04/21 00:48:55;;;;;;;3.50;3.20;;;6.20;99.90;;;;;;5008232;28;20402;-77
2021/04/21 00:51:43;;;;;;;3.70;3.40;;;6.20;99.90;;;;;;5025480;28;21195;-77
2021/04/21 00:54:19;;;;;;;4.15;3.67;;;6.10;99.90;;;;;;5037958;28;20409;-78
2021/04/21 00:56:57;;;;;;;3.80;3.50;;;6.10;99.90;;;;;;5043661;28;20414;-80
2021/04/21 00:59:43;;;;;;;4.55;4.10;;;6.20;99.90;;;;;;5035964;28;20912;-80
2021/04/21 01:02:10;;;;;;;4.05;3.75;;;6.10;99.90;;;;;;5040651;28;20410;-77
2021/04/21 01:04:39;;;;;;;4.30;3.95;;;6.10;99.90;;;;;;5044502;28;20500;-78
2021/04/21 01:07:05;;;;;;;4.55;4.15;;;6.10;99.90;;;;;;5024109;28;20393;-78
2021/04/21 01:09:31;;;;;;;4.97;4.50;;;6.00;99.90;;;;;;5034338;28;20406;-77
2021/04/21 01:12:05;;;;;;;5.50;4.45;;;6.00;99.90;;;;;;5037099;28;20802;-78
2021/04/21 01:14:37;;;;;;;5.00;4.50;;;5.90;99.90;;;;;;5001507;28;20443;-77
2021/04/21 01:17:09;;;;;;;4.63;4.23;;;5.90;99.90;;;;;;5033631;28;20395;-77
2021/04/21 01:19:59;;;;;;;4.45;4.07;;;5.80;99.90;;;;;;5061144;28;20606;-77
2021/04/21 01:22:38;;;;;;;5.10;4.55;;;5.80;99.90;;;;;;5055680;28;20389;-77
2021/04/21 01:25:08;;;;;;;5.50;4.60;;;5.70;99.90;;;;;;5043300;28;20824;-77
2021/04/21 01:27:40;;;;;;;4.53;4.03;;;5.70;99.90;;;;;;5031667;28;20410;-76
2021/04/21 01:30:06;;;;;;;5.00;4.53;;;5.80;99.90;;;;;;5036533;28;20416;-78
2021/04/21 01:32:32;;;;;;;4.65;3.97;;;5.80;99.90;;;;;;5043130;28;20424;-78
2021/04/21 01:34:57;;;;;;;4.27;3.87;;;5.60;99.90;;;;;;5008038;28;20391;-77
2021/04/21 01:37:31;;;;;;;4.03;3.72;;;5.60;99.90;;;;;;5036508;28;20437;-78
2021/04/21 01:40:00;;;;;;;4.10;3.70;;;5.60;99.90;;;;;;5044152;28;20385;-77
2021/04/21 01:42:27;;;;;;;4.10;3.70;;;5.70;99.90;;;;;;5032080;28;20409;-76
2021/04/21 01:44:53;;;;;;;5.93;4.40;;;5.60;99.90;;;;;;5047731;28;20409;-75
2021/04/21 01:47:20;;;;;;;4.88;4.47;;;5.70;99.90;;;;;;5027559;28;20405;-75
2021/04/21 01:49:57;;;;;;;5.13;4.50;;;5.60;99.90;;;;;;5043372;28;20408;-74
2021/04/21 01:52:39;;;;;;;3.70;3.38;;;5.60;99.90;;;;;;5011877;28;20409;-75
2021/04/21 01:55:15;;;;;;;4.30;3.55;;;5.50;99.90;;;;;;5044430;28;20385;-75
2021/04/21 01:57:51;;;;;;;4.60;4.20;;;5.50;99.90;;;;;;5028203;28;20397;-74
2021/04/21 02:00:34;;;;;;;4.55;4.15;;;5.50;99.90;;;;;;5033583;28;20500;-75
2021/04/21 02:03:24;;;;;;;5.57;5.07;;;5.50;99.90;;;;;;5020688;28;20935;-75
2021/04/21 02:06:14;;;;;;;4.40;4.00;;;5.50;99.90;;;;;;5061662;28;20399;-75
2021/04/21 02:09:01;;;;;;;4.40;4.00;;;5.50;99.90;;;;;;5048233;28;20889;-75
2021/04/21 02:11:29;;;;;;;5.00;4.60;;;5.50;99.90;;;;;;5056372;28;20425;-75
2021/04/21 02:14:09;;;;;;;4.90;4.40;;;5.40;99.90;;;;;;5027518;28;20391;-74
2021/04/21 02:17:06;;;;;;;4.97;4.50;;;5.40;99.90;;;;;;5060322;28;20410;-74
2021/04/21 02:19:43;;;;;;;4.68;4.25;;;5.30;99.90;;;;;;5059098;28;25323;-75
2021/04/21 02:22:11;;;;;;;4.47;4.07;;;5.20;99.90;;;;;;5040455;28;20392;-75
2021/04/21 02:24:59;;;;;;;4.20;3.80;;;5.20;99.90;;;;;;5064738;28;20500;-75
2021/04/21 02:27:34;;;;;;;4.00;3.70;;;5.30;99.90;;;;;;5050896;28;20880;-75
2021/04/21 02:30:24;;;;;;;5.10;4.28;;;5.30;99.90;;;;;;5019446;28;20402;-75
2021/04/21 02:32:59;;;;;;;4.95;4.45;;;5.40;99.90;;;;;;5045064;28;20705;-75
2021/04/21 02:35:44;;;;;;;4.85;4.45;;;5.40;99.90;;;;;;5051949;28;20403;-78
2021/04/21 02:38:34;;;;;;;4.93;3.90;;;5.40;99.90;;;;;;5057318;28;20795;-78
2021/04/21 02:41:04;;;;;;;5.00;4.60;;;5.30;99.90;;;;;;5058057;28;20440;-77
2021/04/21 02:43:52;;;;;;;5.10;4.60;;;5.30;99.90;;;;;;5037275;28;20421;-77
2021/04/21 02:46:33;;;;;;;4.75;4.35;;;5.20;99.90;;;;;;5042922;28;20411;-77
2021/04/21 02:49:20;;;;;;;5.90;5.20;;;5.20;99.90;;;;;;5008139;28;20447;-77
2021/04/21 02:52:05;;;;;;;5.32;4.88;;;5.20;99.90;;;;;;5058315;28;20439;-77
2021/04/21 02:54:52;;;;;;;5.28;4.88;;;5.20;99.90;;;;;;5052567;28;20433;-77
2021/04/21 02:57:33;;;;;;;4.90;4.40;;;5.10;99.90;;;;;;5054838;28;20443;-77
2021/04/21 03:00:05;;;;;;;4.68;4.20;;;5.10;99.90;;;;;;5046826;28;20388;-76
2021/04/21 03:02:47;;;;;;;4.72;4.32;;;5.00;99.90;;;;;;5043285;28;20372;-77
2021/04/21 03:05:16;;;;;;;4.63;4.20;;;5.00;99.90;;;;;;5031660;28;20411;-76
2021/04/21 03:08:12;;;;;;;5.10;4.20;;;5.00;99.90;;;;;;5032734;28;20396;-77
2021/04/21 03:10:42;;;;;;;5.07;4.10;;;5.00;99.90;;;;;;5053726;28;20405;-76
2021/04/21 03:13:14;;;;;;;4.85;3.80;;;5.00;99.90;;;;;;5038644;28;20735;-77
2021/04/21 03:15:44;;;;;;;4.10;3.80;;;5.00;99.90;;;;;;5050440;28;20419;-76
2021/04/21 03:18:11;;;;;;;4.35;3.95;;;5.00;99.90;;;;;;5005951;28;20397;-76
2021/04/21 03:20:36;;;;;;;4.90;4.15;;;5.00;99.90;;;;;;5026446;28;20448;-78
2021/04/21 03:23:02;;;;;;;4.83;4.43;;;4.90;99.90;;;;;;5050908;28;20900;-77
2021/04/21 03:25:38;;;;;;;5.30;4.40;;;4.90;99.90;;;;;;5060099;28;20472;-77
2021/04/21 03:28:07;;;;;;;4.50;4.10;;;4.80;99.90;;;;;;5053132;28;20874;-77
2021/04/21 03:30:33;;;;;;;4.53;4.13;;;4.80;99.90;;;;;;5058366;28;20974;-77
2021/04/21 03:33:08;;;;;;;5.65;5.18;;;4.80;99.90;;;;;;5039093;28;20396;-77
2021/04/21 03:35:34;;;;;;;4.80;4.35;;;4.70;99.90;;;;;;5049174;28;20479;-77
2021/04/21 03:38:08;;;;;;;5.25;4.75;;;4.70;99.90;;;;;;5020082;28;20844;-76
2021/04/21 03:40:35;;;;;;;4.90;4.40;;;4.70;99.90;;;;;;5045082;28;20457;-77
2021/04/21 03:43:01;;;;;;;5.85;5.25;;;4.70;99.90;;;;;;5063464;28;20931;-77
2021/04/21 03:45:27;;;;;;;6.35;4.75;;;4.60;99.90;;;;;;5031548;28;20428;-77
2021/04/21 03:47:56;;;;;;;5.55;4.75;;;4.60;99.90;;;;;;5027854;28;20393;-78
2021/04/21 03:50:23;;;;;;;5.10;4.60;;;4.60;99.90;;;;;;5050784;28;20420;-78
2021/04/21 03:52:52;;;;;;;6.35;5.65;;;4.60;99.90;;;;;;5069896;28;20421;-79
2021/04/21 03:55:18;;;;;;;5.55;5.05;;;4.50;99.90;;;;;;5041719;28;20469;-79
2021/04/21 03:57:46;;;;;;;4.83;4.43;;;4.60;99.90;;;;;;5048951;28;20397;-78
2021/04/21 04:00:17;;;;;;;5.18;4.68;;;4.50;99.90;;;;;;5046804;28;20400;-79
2021/04/21 04:02:52;;;;;;;5.57;5.07;;;4.50;99.90;;;;;;5051290;28;20885;-79
2021/04/21 04:05:23;;;;;;;5.57;4.63;;;4.50;99.90;;;;;;5023891;28;20399;-78
2021/04/21 04:07:49;;;;;;;4.70;4.30;;;4.50;99.90;;;;;;5039552;28;20865;-78
2021/04/21 04:10:15;;;;;;;4.57;4.18;;;4.50;99.90;;;;;;5054340;28;20484;-78
2021/04/21 04:12:43;;;;;;;4.60;4.20;;;4.60;99.90;;;;;;5024785;28;21085;-78
2021/04/21 04:15:10;;;;;;;5.65;4.40;;;4.50;99.90;;;;;;5060588;28;20388;-78
2021/04/21 04:17:35;;;;;;;5.00;4.50;;;4.50;99.90;;;;;;5045830;28;20415;-78
2021/04/21 04:20:01;;;;;;;5.30;4.20;;;4.50;99.90;;;;;;5032895;28;20409;-78
2021/04/21 04:22:27;;;;;;;4.25;3.85;;;4.40;99.90;;;;;;5049526;28;20985;-78
2021/04/21 04:24:54;;;;;;;4.57;4.10;;;4.50;99.90;;;;;;5016751;28;20401;-78
2021/04/21 04:27:24;;;;;;;8.65;6.60;;;4.40;99.90;;;;;;5051288;28;20395;-78
2021/04/21 04:29:50;;;;;;;5.43;4.82;;;4.40;99.90;;;;;;5047029;28;20409;-78
2021/04/21 04:32:17;;;;;;;5.30;4.80;;;4.40;99.90;;;;;;5049085;28;20461;-78
2021/04/21 04:34:44;;;;;;;5.25;4.40;;;4.60;99.90;;;;;;5041321;28;20810;-78
2021/04/21 04:37:13;;;;;;;5.67;4.70;;;4.50;99.90;;;;;;5049790;28;20418;-78
2021/04/21 04:39:39;;;;;;;4.63;4.22;;;4.50;99.90;;;;;;5032562;28;20477;-78
2021/04/21 04:42:06;;;;;;;5.22;4.68;;;4.50;99.90;;;;;;5046411;28;20455;-76
2021/04/21 04:44:35;;;;;;;4.70;4.30;;;4.50;99.90;;;;;;5045232;28;21189;-77
2021/04/21 04:47:00;;;;;;;5.57;5.03;;;4.50;99.90;;;;;;5048629;28;20799;-77
2021/04/21 04:49:26;;;;;;;4.90;4.50;;;4.50;99.90;;;;;;5029579;28;20404;-76
2021/04/21 04:51:52;;;;;;;5.37;4.87;;;4.60;99.90;;;;;;5051246;28;20433;-77
2021/04/21 04:54:17;;;;;;;5.60;4.93;;;4.60;99.90;;;;;;5047052;28;20418;-77
2021/04/21 04:56:44;;;;;;;5.20;4.70;;;4.60;99.90;;;;;;5048252;28;20388;-77
2021/04/21 04:59:11;;;;;;;5.77;4.87;;;4.60;99.90;;;;;;5063665;28;20487;-77
2021/04/21 05:01:51;;;;;;;4.90;4.40;;;4.70;99.90;;;;;;5012408;28;20409;-77
2021/04/21 05:04:20;;;;;;;5.20;4.40;;;4.80;99.90;;;;;;5057200;28;20423;-78
2021/04/21 05:06:57;;;;;;;5.22;4.72;;;4.80;99.90;;;;;;5047131;28;20424;-77
2021/04/21 05:09:22;;;;;;;5.30;4.80;;;4.90;99.90;;;;;;5048975;28;20461;-77
2021/04/21 05:11:48;;;;;;;7.33;4.87;;;5.00;99.90;;;;;;5047572;28;20416;-77
2021/04/21 05:14:15;;;;;;;5.33;4.83;;;5.10;99.90;;;;;;5043241;28;20396;-78
2021/04/21 05:16:53;;;;;;;4.80;4.40;;;5.10;99.90;;;;;;5045137;28;20404;-78
2021/04/21 05:20:03;;;;;;;4.85;4.45;;;5.10;99.90;;;;;;5054969;28;20388;-77
2021/04/21 05:23:07;;;;;;;5.15;4.65;;;5.20;99.90;;;;;;5016124;28;20409;-77
2021/04/21 05:26:10;;;;;;;4.60;4.13;;;5.20;99.90;;;;;;5015753;28;20407;-77
2021/04/21 05:28:57;;;;;;;6.97;4.57;;;5.30;99.90;;;;;;5025676;28;20403;-77
2021/04/21 05:31:41;;;;;;;4.90;4.43;;;5.40;99.90;;;;;;5033825;28;20417;-77
2021/04/21 05:34:29;;;;;;;4.93;4.43;;;5.50;99.90;;;;;;5020225;28;20655;-77
2021/04/21 05:37:25;;;;;;;6.00;4.70;;;5.60;99.90;;;;;;5040322;28;20412;-77
2021/04/21 05:40:28;;;;;;;5.07;4.57;;;5.70;99.90;;;;;;5004895;28;20399;-78
2021/04/21 05:43:31;;;;;;;5.40;4.55;;;5.80;99.90;;;;;;5053560;28;20413;-77
2021/04/21 05:46:36;;;;;;;4.53;4.13;;;5.90;99.90;;;;;;5054693;28;20825;-75
2021/04/21 05:49:39;;;;;;;4.97;4.55;;;6.00;99.90;;;;;;5054317;28;20401;-75
2021/04/21 05:52:27;;;;;;;4.43;3.90;;;6.10;99.90;;;;;;5047174;28;20404;-75
2021/04/21 05:55:11;;;;;;;4.68;4.28;;;6.20;99.90;;;;;;5055631;28;20567;-75
2021/04/21 05:58:05;;;;;;;6.25;3.78;;;6.30;99.90;;;;;;5048025;28;20552;-78
2021/04/21 06:00:49;;;;;;;5.22;4.70;;;6.40;99.90;;;;;;5053391;28;20400;-77
2021/04/21 06:03:15;;;;;;;4.85;4.45;;;6.50;99.90;;;;;;5052822;28;20999;-78
2021/04/21 06:05:41;;;;;;;5.15;4.50;;;6.70;99.90;;;;;;5049140;28;20412;-77
2021/04/21 06:08:14;;;;;;;4.30;3.90;;;6.80;99.90;;;;;;5033002;28;20396;-77
2021/04/21 06:10:40;;;;;;;4.45;3.97;;;6.90;99.90;;;;;;5031636;28;20398;-77
2021/04/21 06:13:05;;;;;;;4.38;3.97;;;7.10;99.90;;;;;;5049207;28;20770;-78
2021/04/21 06:15:31;;;;;;;4.40;4.05;;;7.20;99.90;;;;;;5056927;28;20439;-78
2021/04/21 06:17:58;;;;;;;5.07;3.67;;;7.20;99.90;;;;;;5065953;28;20403;-78
2021/04/21 06:20:31;;;;;;;5.23;4.67;;;7.30;99.90;;;;;;5046724;28;20757;-78
2021/04/21 06:23:03;;;;;;;5.03;4.53;;;7.40;99.90;;;;;;5046289;28;20390;-78
2021/04/21 06:25:29;;;;;;;4.60;3.90;;;7.60;99.90;;;;;;5032070;28;20396;-78
2021/04/21 06:28:12;;;;;;;4.90;4.40;;;7.60;99.90;;;;;;5018098;28;20400;-78
2021/04/21 06:30:38;;;;;;;4.57;4.18;;;7.80;99.90;;;;;;5047195;28;20402;-79
2021/04/21 06:33:04;;;;;;;4.53;4.13;;;8.00;99.90;;;;;;5050913;28;20407;-79
2021/04/21 06:35:30;;;;;;;6.25;4.43;;;8.10;99.90;;;;;;5049874;28;20398;-78
2021/04/21 06:37:56;;;;;;;4.03;3.73;;;8.30;99.90;;;;;;5047394;28;20401;-79
2021/04/21 06:40:25;;;;;;;4.40;4.00;;;8.50;99.90;;;;;;5060549;28;20491;-78
2021/04/21 06:42:51;;;;;;;4.47;3.70;;;8.60;99.90;;;;;;5065060;28;20404;-78
2021/04/21 06:45:22;;;;;;;4.85;4.13;;;8.70;99.90;;;;;;5033173;28;20449;-78
2021/04/21 06:47:48;;;;;;;4.75;3.83;;;8.80;99.90;;;;;;5027768;28;20393;-79
2021/04/21 06:50:14;;;;;;;4.78;4.28;;;8.90;99.90;;;;;;5043208;28;20409;-77
2021/04/21 06:52:42;;;;;;;4.53;3.83;;;9.10;99.90;;;;;;5053151;28;20453;-79
2021/04/21 06:55:13;;;;;;;3.90;3.57;;;9.10;99.90;;;;;;5035961;28;20389;-79
2021/04/21 06:57:39;;;;;;;5.40;4.00;;;9.20;99.90;;;;;;5038303;28;20450;-78
2021/04/21 07:00:12;;;;;;;4.30;3.65;;;9.20;99.90;;;;;;5044074;28;20395;-78
2021/04/21 07:02:41;;;;;;;6.53;4.60;;;9.20;99.90;;;;;;5036717;28;20772;-79
2021/04/21 07:05:35;;;;;;;6.40;4.35;;;9.30;99.90;;;;;;5064030;28;20388;-78
2021/04/21 07:08:12;;;;;;;5.95;4.15;;;9.40;99.90;;;;;;5026570;28;20376;-78
2021/04/21 07:10:39;;;;;;;3.92;3.53;;;9.60;99.90;;;;;;5040675;28;20471;-79
2021/04/21 07:13:06;;;;;;;5.90;3.65;;;9.80;99.90;;;;;;5050721;28;20384;-78
2021/04/21 07:15:33;;;;;;;3.63;3.30;;;9.80;99.90;;;;;;5047213;28;20880;-78
2021/04/21 07:17:58;;;;;;;4.68;3.83;;;10.10;99.90;;;;;;5048639;28;20451;-79
2021/04/21 07:20:24;;;;;;;4.73;3.43;;;10.30;99.90;;;;;;5028131;28;20484;-80
2021/04/21 07:22:50;;;;;;;4.68;3.60;;;10.30;99.90;;;;;;5015379;28;20391;-78
2021/04/21 07:25:16;;;;;;;4.50;3.40;;;10.50;99.90;;;;;;5047976;28;20376;-79
2021/04/21 07:27:49;;;;;;;6.03;3.80;;;10.60;99.90;;;;;;5021001;28;20398;-80
2021/04/21 07:30:19;;;;;;;3.75;3.08;;;10.60;99.90;;;;;;5051029;28;20469;-79
2021/04/21 07:32:45;;;;;;;3.77;3.27;;;10.80;99.90;;;;;;5032933;28;20381;-80
2021/04/21 07:35:17;;;;;;;4.75;3.40;;;10.90;99.90;;;;;;5035428;28;20391;-80
2021/04/21 07:37:44;;;;;;;4.30;3.28;;;11.10;99.90;;;;;;5021096;28;20473;-80
2021/04/21 07:40:19;;;;;;;3.50;3.20;;;11.20;99.90;;;;;;5020112;28;20457;-80
2021/04/21 07:42:45;;;;;;;3.92;3.53;;;11.40;99.90;;;;;;5068286;28;20388;-80
2021/04/21 07:45:11;;;;;;;3.00;2.72;;;11.50;99.90;;;;;;5032327;28;20852;-80
2021/04/21 07:47:37;;;;;;;4.32;3.33;;;11.70;99.90;;;;;;5049567;28;20385;-80
2021/04/21 07:50:04;;;;;;;5.15;3.50;;;11.80;99.90;;;;;;5047403;28;20397;-80
2021/04/21 07:52:33;;;;;;;3.80;2.88;;;12.00;99.90;;;;;;5017931;28;20402;-80
2021/04/21 07:55:21;;;;;;;3.30;3.00;;;12.10;99.90;;;;;;5048174;28;20738;-80
2021/04/21 07:57:57;;;;;;;4.38;3.08;;;12.10;99.90;;;;;;5043751;28;20568;-80
2021/04/21 08:00:25;;;;;;;6.25;3.00;;;12.20;99.90;;;;;;5049985;28;20396;-80
2021/04/21 08:02:51;;;;;;;4.03;3.05;;;12.40;99.90;;;;;;5060834;28;20404;-80
2021/04/21 08:05:16;;;;;;;3.13;2.80;;;12.50;99.90;;;;;;5059155;28;20392;-80
2021/04/21 08:07:43;;;;;;;2.90;2.60;;;12.60;99.90;;;;;;5047962;28;20382;-80
2021/04/21 08:10:21;;;;;;;3.20;2.90;;;12.80;99.90;;;;;;5034119;28;20401;-80
2021/04/21 08:12:46;;;;;;;4.20;3.05;;;12.90;99.90;;;;;;5020049;28;20396;-80
2021/04/21 08:15:12;;;;;;;3.40;2.90;;;13.00;99.90;;;;;;5032763;28;20985;-79
2021/04/21 08:17:53;;;;;;;4.20;3.05;;;13.20;99.90;;;;;;5037237;28;20383;-81
2021/04/21 08:20:28;;;;;;;2.63;2.43;;;13.10;99.90;;;;;;5042012;28;20406;-80
2021/04/21 08:23:04;;;;;;;3.08;2.78;;;13.10;99.90;;;;;;5069820;28;20473;-79
2021/04/21 08:25:30;;;;;;;3.55;3.00;;;13.30;99.90;;;;;;5052035;28;20391;-81
2021/04/21 08:27:56;;;;;;;4.45;2.78;;;13.40;99.90;;;;;;5018317;28;20399;-79
2021/04/21 08:30:22;;;;;;;3.50;2.80;;;13.50;99.90;;;;;;5047094;28;20406;-80
2021/04/21 08:32:48;;;;;;;3.07;2.77;;;13.60;99.90;;;;;;5045885;28;20456;-80
2021/04/21 08:35:14;;;;;;;3.22;2.70;;;13.60;99.90;;;;;;5013279;28;20471;-80
2021/04/21 08:37:40;;;;;;;4.68;3.10;;;13.70;99.90;;;;;;5050969;28;20376;-80
2021/04/21 08:40:07;;;;;;;3.10;2.80;;;13.70;99.90;;;;;;5011372;28;20396;-80
2021/04/21 08:42:33;;;;;;;3.45;2.78;;;13.70;99.90;;;;;;5055026;28;22100;-80
2021/04/21 08:44:59;;;;;;;3.00;2.80;;;13.70;99.90;;;;;;5040494;28;21051;-80
2021/04/21 08:47:25;;;;;;;4.60;3.22;;;13.80;99.90;;;;;;5025432;28;20777;-80
2021/04/21 08:49:53;;;;;;;4.40;2.72;;;13.80;99.90;;;;;;5027664;28;20587;-80
2021/04/21 08:52:19;;;;;;;3.30;3.00;;;13.70;99.90;;;;;;5047795;28;20421;-80
2021/04/21 08:54:47;;;;;;;2.67;2.47;;;13.80;99.90;;;;;;5031497;28;20390;-80
2021/04/21 08:57:13;;;;;;;3.20;2.88;;;13.80;99.90;;;;;;5034754;28;20403;-79
2021/04/21 08:59:41;;;;;;;3.55;2.80;;;13.90;99.90;;;;;;5035968;28;20400;-81
2021/04/21 09:02:07;;;;;;;3.53;2.92;;;14.10;99.90;;;;;;5051959;28;20437;-81
2021/04/21 09:04:43;;;;;;;3.53;3.23;;;14.10;99.90;;;;;;5044587;28;20399;-82
2021/04/21 09:07:12;;;;;;;3.33;3.03;;;14.30;99.90;;;;;;5047314;28;20403;-80
2021/04/21 09:09:38;;;;;;;2.80;2.60;;;14.50;99.90;;;;;;5056130;28;20390;-81
2021/04/21 09:12:05;;;;;;;3.42;3.10;;;14.60;99.90;;;;;;5029393;28;20934;-82
2021/04/21 09:14:31;;;;;;;4.28;3.28;;;14.60;99.90;;;;;;5054768;28;20385;-81
2021/04/21 09:17:03;;;;;;;5.40;3.43;;;14.30;99.90;;;;;;5058300;28;20388;-80
2021/04/21 09:19:37;;;;;;;4.17;3.13;;;14.40;99.90;;;;;;5064011;28;20903;-82
2021/04/21 09:22:10;;;;;;;4.97;3.25;;;14.50;99.90;;;;;;5051925;28;20421;-81
2021/04/21 09:24:39;;;;;;;3.90;2.90;;;14.80;99.90;;;;;;5009725;28;20398;-81
2021/04/21 09:27:33;;;;;;;5.40;3.55;;;15.00;99.90;;;;;;5039597;28;20482;-81
2021/04/21 09:30:16;;;;;;;3.40;3.10;;;15.10;99.90;;;;;;5028503;28;20415;-81
2021/04/21 09:32:50;;;;;;;4.33;3.33;;;15.20;99.90;;;;;;5028535;28;20452;-81
2021/04/21 09:35:27;;;;;;;4.75;3.03;;;15.20;99.90;;;;;;5066708;28;20411;-81
2021/04/21 09:38:04;;;;;;;4.03;2.95;;;15.50;99.90;;;;;;5068168;28;20436;-80
2021/04/21 09:40:49;;;;;;;4.07;3.40;;;15.70;99.90;;;;;;5058502;28;20418;-80
2021/04/21 09:43:46;;;;;;;3.33;3.03;;;15.80;99.90;;;;;;5044124;28;20380;-82
2021/04/21 09:46:23;;;;;;;4.30;2.87;;;15.80;99.90;;;;;;5043749;28;20391;-81
2021/04/21 09:49:32;;;;;;;3.70;3.13;;;16.10;99.90;;;;;;5037436;28;20400;-82
2021/04/21 09:52:12;;;;;;;4.30;3.13;;;16.30;99.90;;;;;;5078953;28;20904;-81
2021/04/21 09:54:46;;;;;;;3.10;2.80;;;16.40;99.90;;;;;;5073282;28;20397;-81
2021/04/21 09:57:14;;;;;;;4.70;3.13;;;16.80;99.90;;;;;;5085992;28;20410;-81
2021/04/21 09:59:45;;;;;;;4.30;2.80;;;16.70;99.10;;;;;;5036210;28;20404;-81
2021/04/21 10:02:37;;;;;;;3.93;3.03;;;17.00;96.80;;;;;;5030623;28;20488;-81
2021/04/21 10:05:50;;;;;;;3.42;3.13;;;17.40;99.90;;;;;;5053063;28;20421;-81
2021/04/21 10:08:35;;;;;;;3.53;3.22;;;17.60;98.30;;;;;;5053341;28;20396;-80
2021/04/21 10:11:31;;;;;;;4.10;2.88;;;17.60;98.90;;;;;;5047845;28;20528;-82
2021/04/21 10:14:23;;;;;;;2.80;2.60;;;17.70;92.20;;;;;;5064289;28;20383;-81
2021/04/21 10:16:52;;;;;;;2.97;2.65;;;17.90;92.40;;;;;;5042309;28;20886;-81
2021/04/21 10:19:46;;;;;;;2.97;2.45;;;17.90;97.20;;;;;;5051989;28;20392;-81
2021/04/21 10:22:22;;;;;;;2.73;2.43;;;18.20;93.30;;;;;;5037618;28;20406;-81
2021/04/21 10:25:14;;;;;;;3.60;2.90;;;18.40;96.00;;;;;;5029460;28;20390;-80
2021/04/21 10:27:40;;;;;;;3.47;2.60;;;18.50;83.40;;;;;;5017925;28;20461;-81
2021/04/21 10:30:25;;;;;;;2.92;2.72;;;18.90;87.90;;;;;;4993400;28;20480;-80
2021/04/21 10:33:09;;;;;;;4.10;2.80;;;19.30;88.10;;;;;;5020657;28;20395;-81
2021/04/21 10:35:36;;;;;;;3.13;2.83;;;19.30;78.00;;;;;;5036011;28;20404;-80
2021/04/21 10:38:02;;;;;;;3.27;2.63;;;18.80;77.40;;;;;;5017925;28;20407;-81
2021/04/21 10:40:30;;;;;;;3.55;2.80;;;18.80;83.30;;;;;;5027167;28;20405;-81
2021/04/21 10:43:07;;;;;;;3.17;2.87;;;18.90;76.50;;;;;;5051846;28;20392;-81
2021/04/21 10:46:13;;;;;;;3.78;2.72;;;19.00;69.80;;;;;;5038403;28;20439;-81
2021/04/21 10:48:50;;;;;;;3.50;2.80;;;19.50;70.20;;;;;;5069905;28;20394;-80
2021/04/21 10:52:21;;;;;;;3.30;2.40;;;19.50;70.30;;;;;;5059660;28;20483;-81
2021/04/21 10:55:18;;;;;;;2.70;2.50;;;19.70;70.90;;;;;;5074727;28;20397;-82
2021/04/21 10:58:12;;;;;;;2.97;2.60;;;19.90;74.30;;;;;;5078643;28;20382;-80
2021/04/21 11:00:51;;;;;;;2.42;2.22;;;20.10;63.70;;;;;;5060692;28;20449;-80
2021/04/21 11:03:24;;;;;;;2.70;2.50;;;19.80;61.60;;;;;;5049368;28;20400;-81
2021/04/21 11:05:58;;;;;;;2.60;2.40;;;19.80;62.10;;;;;;5058792;28;20395;-81
2021/04/21 11:08:30;;;;;;;3.47;2.47;;;19.80;61.00;;;;;;5037468;28;20411;-81
2021/04/21 11:11:20;;;;;;;2.55;2.30;;;19.80;67.70;;;;;;5005146;28;20496;-82
2021/04/21 11:13:53;;;;;;;3.47;2.47;;;19.40;61.10;;;;;;5050377;28;20399;-80
2021/04/21 11:16:33;;;;;;;2.53;2.30;;;19.80;63.00;;;;;;5052125;28;20421;-79
2021/04/21 11:19:32;;;;;;;2.60;2.40;;;20.40;65.50;;;;;;5069156;28;20392;-80
2021/04/21 11:22:16;;;;;;;2.70;2.50;;;20.70;59.10;;;;;;5038605;28;20453;-81
2021/04/21 11:24:43;;;;;;;3.10;2.63;;;20.90;59.40;;;;;;5032443;28;20520;-81
2021/04/21 11:27:46;;;;;;;2.60;2.40;;;21.00;58.50;;;;;;5042507;28;20402;-80
2021/04/21 11:31:26;;;;;;;4.22;2.40;;;20.30;59.10;;;;;;5033926;28;20427;-83
2021/04/21 11:34:42;;;;;;;2.83;2.40;;;20.10;58.70;;;;;;4985793;28;20462;-85
2021/04/21 11:37:45;;;;;;;2.27;2.10;;;19.50;55.70;;;;;;5018706;28;20456;-81
2021/04/21 11:40:38;;;;;;;2.63;2.20;;;19.20;58.80;;;;;;5024735;28;20540;-81
2021/04/21 11:43:14;;;;;;;4.35;2.20;;;19.40;58.50;;;;;;5022057;28;20405;-80
2021/04/21 11:45:42;;;;;;;4.05;2.30;;;20.10;58.00;;;;;;5027773;28;20408;-81
2021/04/21 11:48:09;;;;;;;2.08;1.98;;;20.10;56.10;;;;;;5021857;28;20368;-81
2021/04/21 11:50:48;;;;;;;3.25;2.45;;;19.60;55.50;;;;;;5044522;28;20434;-81
2021/04/21 11:53:40;;;;;;;2.78;2.10;;;19.20;56.20;;;;;;5047808;28;20397;-81
2021/04/21 11:57:02;;;;;;;4.80;2.20;;;19.00;58.10;;;;;;5077052;28;20414;-82
2021/04/21 12:01:31;;;;;;;2.45;2.25;;;19.00;59.90;;;;;;5049849;28;20428;-80
2021/04/21 12:04:21;;;;;;;2.20;2.00;;;19.70;53.00;;;;;;5043943;28;20401;-80
2021/04/21 12:06:48;;;;;;;2.20;2.05;;;19.00;55.50;;;;;;5040191;28;20451;-80
2021/04/21 12:12:21;;;;;;;2.22;2.03;;;18.40;55.60;;;;;;5067632;28;20370;-81
2021/04/21 12:15:08;;;;;;;1.80;1.70;;;18.50;58.00;;;;;;5019821;28;20421;-81
2021/04/21 12:17:49;;;;;;;2.33;2.13;;;18.60;53.80;;;;;;5035576;28;20397;-81
2021/04/21 12:20:27;;;;;;;1.95;1.80;;;18.70;55.90;;;;;;5007062;28;20401;-80
2021/04/21 12:22:53;;;;;;;2.47;2.28;;;18.80;56.30;;;;;;5070036;28;20399;-81
2021/04/21 12:25:38;;;;;;;2.30;2.10;;;19.00;55.10;;;;;;5041590;28;20396;-81
2021/04/21 12:28:05;;;;;;;3.00;2.03;;;19.50;55.00;;;;;;5020845;28;20481;-80
2021/04/21 12:30:38;;;;;;;2.67;1.98;;;19.80;56.30;;;;;;5033528;28;20423;-80
2021/04/21 12:33:23;;;;;;;2.30;2.10;;;20.10;56.10;;;;;;5029959;28;20389;-82
2021/04/21 12:35:57;;;;;;;1.85;1.75;;;19.90;52.90;;;;;;5051850;28;20381;-81
2021/04/21 12:42:50;;;;;;;1.70;1.60;;;18.70;53.50;;;;;;5084878;28;20397;-81
2021/04/21 12:45:31;;;;;;;1.98;1.88;;;18.60;56.30;;;;;;5024046;28;20374;-81
2021/04/21 12:48:00;;;;;;;1.87;1.77;;;18.40;56.50;;;;;;5049091;28;20378;-81
2021/04/21 12:50:30;;;;;;;2.20;2.00;;;18.30;56.50;;;;;;5075006;28;21471;-81
2021/04/21 12:53:12;;;;;;;1.65;1.55;;;19.00;59.40;;;;;;5075055;28;20451;-81
2021/04/21 12:55:38;;;;;;;2.40;1.90;;;19.50;54.50;;;;;;5062767;28;20401;-81
2021/04/21 12:58:17;;;;;;;3.45;1.77;;;19.80;53.20;;;;;;5051519;28;20385;-81
2021/04/21 13:00:48;;;;;;;4.68;1.98;;;19.90;52.70;;;;;;5045296;28;20394;-82
2021/04/21 13:03:16;;;;;;;6.10;2.10;;;19.50;53.90;;;;;;5017249;28;20469;-81
2021/04/21 13:05:50;;;;;;;2.72;1.98;;;19.60;55.00;;;;;;5020572;28;20391;-81
2021/04/21 13:08:20;;;;;;;1.92;1.83;;;19.30;53.70;;;;;;5022611;28;20449;-81
2021/04/21 13:10:46;;;;;;;2.15;1.90;;;18.90;53.00;;;;;;5021632;28;20487;-81
2021/04/21 13:13:12;;;;;;;2.20;2.00;;;18.60;53.70;;;;;;5044944;28;20472;-81
2021/04/21 13:22:30;;;;;;;3.25;2.00;;;19.80;56.50;;;;;;5005687;28;20433;-86
2021/04/21 13:24:57;;;;;;;2.27;1.70;;;19.40;52.00;;;;;;4986584;28;20438;-84
2021/04/21 13:27:32;;;;;;;1.90;1.50;;;19.00;53.70;;;;;;4994270;28;20441;-86
2021/04/21 13:30:07;;;;;;;2.45;1.95;;;18.60;56.00;;;;;;5000331;28;20404;-89
2021/04/21 13:32:34;;;;;;;1.75;1.65;;;18.60;55.80;;;;;;4978079;28;20389;-85
2021/04/21 13:34:59;;;;;;;2.03;1.83;;;18.50;56.20;;;;;;5003270;28;20389;-85
2021/04/21 13:37:25;;;;;;;2.27;1.63;;;18.40;55.60;;;;;;5000421;28;20394;-86
2021/04/21 13:40:20;;;;;;;2.33;1.90;;;19.00;59.00;;;;;;4997108;28;20389;-86
2021/04/21 13:42:47;;;;;;;2.40;1.70;;;20.40;59.10;;;;;;5005953;28;20433;-85
2021/04/21 13:45:18;;;;;;;2.40;2.00;;;21.50;57.60;;;;;;4981767;28;20466;-87
2021/04/21 13:47:45;;;;;;;2.00;1.80;;;22.70;53.70;;;;;;5012640;28;20462;-89
2021/04/21 13:50:11;;;;;;;2.67;2.00;;;22.80;52.00;;;;;;5007689;28;20398;-84